Terminal Aerodrome Forecast
Issued by NWS Cleveland, OH

Home | Current Version | Previous Version | Graphics & Text | Print | Product List | Glossary Off
Versions: 1 2 3 4 5 6 7 8 9 10 11 12 13 14 15 16 17 18 19

318
FTUS41 KCLE 011001 AAA
TAFCAK
TAF AMD
KCAK 011001Z 0110/0206 20020G30KT P6SM SCT008 BKN050 WS020/22050KT
     FM011100 20015G25KT 4SM -TSRA BR OVC035CB WS020/22050KT
      TEMPO 0111/0112 23020G40KT 2SM +TSRA BR OVC025CB
     FM011500 22015G25KT P6SM SCT015 BKN100
     FM012000 24020G35KT 3SM -TSRA OVC025CB
     FM012200 26020G35KT P6SM OVC025=

USA.gov is the U.S. government's official web portal to all federal, state and local government web resources and services.